createdAt,value
2018-03-19T00:00:54.859Z,94771.36
2018-03-19T00:03:23.228Z,94772.50
2018-03-19T00:05:52.509Z,94772.62
2018-03-19T00:08:20.858Z,94766.12
2018-03-19T00:10:49.179Z,94771.36
2018-03-19T00:13:17.523Z,94771.95
2018-03-19T00:15:45.839Z,94769.95
2018-03-19T00:18:14.191Z,94774.10
2018-03-19T00:20:42.599Z,94777.59
2018-03-19T00:23:10.929Z,94774.53
2018-03-19T00:25:39.246Z,94769.09
2018-03-19T00:28:08.518Z,94774.01
2018-03-19T00:30:36.848Z,94772.69
2018-03-19T00:33:05.181Z,94778.52
2018-03-19T00:35:33.584Z,94781.53
2018-03-19T00:38:01.927Z,94781.26
2018-03-19T00:40:30.258Z,94779.21
2018-03-19T00:42:58.591Z,94777.55
2018-03-19T00:45:26.920Z,94775.38
2018-03-19T00:47:55.239Z,94771.63
2018-03-19T00:50:23.555Z,94772.00
2018-03-19T00:52:51.915Z,94766.98
2018-03-19T00:55:20.648Z,94771.37
2018-03-19T00:57:48.979Z,94769.36
2018-03-19T01:00:17.327Z,94771.52
2018-03-19T01:02:45.656Z,94764.78
2018-03-19T01:05:13.984Z,94768.05
2018-03-19T01:07:42.310Z,94769.81
2018-03-19T01:10:10.633Z,94769.02
2018-03-19T01:12:39.064Z,94769.40
2018-03-19T01:15:07.427Z,94758.94
2018-03-19T01:17:35.788Z,94774.59
2018-03-19T01:20:04.193Z,94768.17
2018-03-19T01:22:32.562Z,94762.88
2018-03-19T01:25:00.947Z,94761.30
2018-03-19T01:27:29.319Z,94759.52
2018-03-19T01:29:57.652Z,94764.95
2018-03-19T01:32:25.974Z,94764.56
2018-03-19T01:34:54.313Z,94754.70
2018-03-19T01:37:22.951Z,94762.14
2018-03-19T01:39:51.287Z,94759.69
2018-03-19T01:42:19.614Z,94764.31
2018-03-19T01:44:47.941Z,94761.50
2018-03-19T01:47:16.288Z,94761.00
2018-03-19T01:49:44.618Z,94766.80
2018-03-19T01:52:13.006Z,94765.34
2018-03-19T01:54:41.348Z,94762.08
2018-03-19T01:57:09.682Z,94764.06
2018-03-19T01:59:38.011Z,94764.58
2018-03-19T02:02:06.343Z,94761.16
2018-03-19T02:04:34.693Z,94761.82
2018-03-19T02:07:03.023Z,94761.02
2018-03-19T02:09:31.347Z,94754.50
2018-03-19T02:11:59.685Z,94761.53
2018-03-19T02:14:28.011Z,94765.30
2018-03-19T02:16:56.352Z,94758.52
2018-03-19T02:19:24.694Z,94762.01
2018-03-19T02:21:53.026Z,94766.55
2018-03-19T02:24:21.487Z,94760.41
2018-03-19T02:26:49.756Z,94760.16
2018-03-19T02:29:18.085Z,94759.42
2018-03-19T02:31:46.423Z,94758.41
2018-03-19T02:34:14.824Z,94759.77
2018-03-19T02:36:43.208Z,94765.57
2018-03-19T02:39:11.584Z,94758.05
2018-03-19T02:41:39.948Z,94753.88
2018-03-19T02:44:08.348Z,94750.28
2018-03-19T02:46:36.684Z,94757.23
2018-03-19T02:49:05.098Z,94755.25
2018-03-19T02:51:33.469Z,94752.95
2018-03-19T02:54:01.808Z,94757.47
2018-03-19T02:56:30.131Z,94758.78
2018-03-19T02:58:58.599Z,94769.34
2018-03-19T03:01:26.940Z,94760.44
2018-03-19T03:03:55.317Z,94757.99
2018-03-19T03:06:23.641Z,94765.34
2018-03-19T03:08:51.967Z,94766.26
2018-03-19T03:11:20.397Z,94767.20
2018-03-19T03:13:48.739Z,94761.45
2018-03-19T03:16:17.067Z,94765.59
2018-03-19T03:18:45.520Z,94767.81
2018-03-19T03:21:13.867Z,94767.86
2018-03-19T03:23:42.291Z,94769.17
2018-03-19T03:26:11.123Z,94771.33
2018-03-19T03:28:39.440Z,94771.27
2018-03-19T03:31:07.777Z,94773.77
2018-03-19T03:33:36.210Z,94779.41
2018-03-19T03:36:04.648Z,94774.36
2018-03-19T03:38:32.982Z,94770.33
2018-03-19T03:41:01.335Z,94771.11
2018-03-19T03:43:29.671Z,94767.11
2018-03-19T03:45:57.999Z,94771.45
2018-03-19T03:48:26.392Z,94771.02
2018-03-19T03:50:54.774Z,94766.77
2018-03-19T03:53:23.149Z,94769.95
2018-03-19T03:55:51.527Z,94775.70
2018-03-19T03:58:19.867Z,94778.63
2018-03-19T04:00:48.276Z,94769.45
2018-03-19T04:03:16.655Z,94778.08
2018-03-19T04:05:45.025Z,94781.00
2018-03-19T04:08:13.347Z,94773.98
2018-03-19T04:10:41.778Z,94772.64
2018-03-19T04:13:10.175Z,94774.25
2018-03-19T04:15:38.524Z,94776.80
2018-03-19T04:18:07.023Z,94774.54
2018-03-19T04:20:35.566Z,94773.59
2018-03-19T04:23:03.894Z,94779.60
2018-03-19T04:25:32.266Z,94775.72
2018-03-19T04:28:00.636Z,94775.83
2018-03-19T04:30:28.934Z,94778.20
2018-03-19T04:32:57.287Z,94775.30
2018-03-19T04:35:25.636Z,94777.03
2018-03-19T04:37:53.983Z,94770.89
2018-03-19T04:40:22.427Z,94774.13
2018-03-19T04:42:50.762Z,94775.99
2018-03-19T04:45:19.258Z,94776.64
2018-03-19T04:47:47.581Z,94775.82
2018-03-19T04:50:15.971Z,94771.85
2018-03-19T04:52:44.309Z,94781.02
2018-03-19T04:55:12.619Z,94775.48
2018-03-19T04:57:41.006Z,94777.20
2018-03-19T05:00:09.344Z,94785.95
2018-03-19T05:02:37.680Z,94786.85
2018-03-19T05:05:06.098Z,94791.39
2018-03-19T05:07:34.449Z,94787.14
2018-03-19T05:10:02.840Z,94782.10
2018-03-19T05:12:31.183Z,94782.77
2018-03-19T05:14:59.504Z,94787.78
2018-03-19T05:17:27.838Z,94785.94
2018-03-19T05:19:56.166Z,94793.34
2018-03-19T05:22:24.503Z,94793.09
2018-03-19T05:24:52.918Z,94792.03
2018-03-19T05:27:21.251Z,94786.20
2018-03-19T05:29:49.806Z,94789.80
2018-03-19T05:32:18.175Z,94785.66
2018-03-19T05:34:46.510Z,94791.77
2018-03-19T05:37:14.843Z,94794.30
2018-03-19T05:39:43.167Z,94795.08
2018-03-19T05:42:11.578Z,94803.72
2018-03-19T05:44:39.955Z,94805.04
2018-03-19T05:47:08.292Z,94802.25
2018-03-19T05:49:36.631Z,94807.81
2018-03-19T05:52:04.957Z,94807.70
2018-03-19T05:54:33.293Z,94806.38
2018-03-19T05:57:01.632Z,94811.27
2018-03-19T05:59:30.095Z,94809.80
2018-03-19T06:01:58.433Z,94815.64
2018-03-19T06:04:26.884Z,94817.77
2018-03-19T06:06:55.219Z,94812.45
2018-03-19T06:09:23.561Z,94811.25
2018-03-19T06:11:51.908Z,94821.45
2018-03-19T06:14:20.214Z,94817.21
2018-03-19T06:16:48.558Z,94819.09
2018-03-19T06:19:16.892Z,94824.69
2018-03-19T06:21:45.214Z,94827.06
2018-03-19T06:24:13.548Z,94826.92
2018-03-19T06:26:41.889Z,94828.64
2018-03-19T06:29:10.216Z,94836.34
2018-03-19T06:31:38.644Z,94836.75
2018-03-19T06:34:06.980Z,94835.80
2018-03-19T06:36:35.399Z,94836.45
2018-03-19T06:39:03.736Z,94836.18
2018-03-19T06:41:32.063Z,94841.77
2018-03-19T06:44:00.715Z,94839.14
2018-03-19T06:46:29.107Z,94842.82
2018-03-19T06:48:57.474Z,94840.29
2018-03-19T06:51:25.797Z,94847.61
2018-03-19T06:53:54.135Z,94849.20
2018-03-19T06:56:22.514Z,94854.50
2018-03-19T06:58:50.898Z,94862.61
2018-03-19T07:01:19.234Z,94862.59
2018-03-19T07:03:47.655Z,94863.37
2018-03-19T07:06:16.000Z,94863.91
2018-03-19T07:08:44.405Z,94859.80
2018-03-19T07:11:12.751Z,94855.58
2018-03-19T07:13:41.087Z,94863.66
2018-03-19T07:16:09.419Z,94869.89
2018-03-19T07:18:37.767Z,94862.19
2018-03-19T07:21:06.201Z,94867.91
2018-03-19T07:23:34.608Z,94868.84
2018-03-19T07:26:02.975Z,94873.72
2018-03-19T07:28:31.341Z,94866.68
2018-03-19T07:30:59.675Z,94872.66
2018-03-19T07:33:28.011Z,94875.55
2018-03-19T07:35:56.332Z,94884.09
2018-03-19T07:38:24.649Z,94886.73
2018-03-19T07:40:53.176Z,94881.39
2018-03-19T07:43:21.483Z,94883.66
2018-03-19T07:45:49.840Z,94883.25
2018-03-19T07:48:18.243Z,94876.61
2018-03-19T07:50:46.572Z,94884.31
2018-03-19T07:53:14.919Z,94885.78
2018-03-19T07:55:43.263Z,94886.55
2018-03-19T07:58:11.598Z,94886.59
2018-03-19T08:00:39.941Z,94887.38
2018-03-19T08:03:08.332Z,94881.39
2018-03-19T08:05:36.675Z,94885.13
2018-03-19T08:08:05.158Z,94888.59
2018-03-19T08:10:33.597Z,94890.42
2018-03-19T08:13:01.944Z,94890.29
2018-03-19T08:15:30.274Z,94898.79
2018-03-19T08:17:58.690Z,94892.29
2018-03-19T08:20:27.018Z,94894.42
2018-03-19T08:22:55.450Z,94890.95
2018-03-19T08:25:23.794Z,94892.69
2018-03-19T08:27:52.132Z,94891.59
2018-03-19T08:30:20.475Z,94901.28
2018-03-19T08:32:48.815Z,94897.47
2018-03-19T08:35:17.147Z,94901.16
2018-03-19T08:37:45.487Z,94892.69
2018-03-19T08:40:13.811Z,94896.78
2018-03-19T08:42:42.163Z,94898.19
2018-03-19T08:45:10.515Z,94896.39
2018-03-19T08:47:38.858Z,94899.81
2018-03-19T08:50:07.211Z,94895.31
2018-03-19T08:52:35.586Z,94901.87
2018-03-19T08:55:03.938Z,94897.74
2018-03-19T08:57:32.278Z,94897.91
2018-03-19T09:00:00.608Z,94902.70
2018-03-19T09:02:28.946Z,94897.62
2018-03-19T09:04:57.274Z,94895.95
2018-03-19T09:07:25.609Z,94890.10
2018-03-19T09:09:54.029Z,94898.70
2018-03-19T09:12:22.403Z,94890.95
2018-03-19T09:14:50.727Z,94889.25
2018-03-19T09:17:19.048Z,94884.45
2018-03-19T09:19:47.442Z,94890.88
2018-03-19T09:22:15.771Z,94893.08
2018-03-19T09:24:44.132Z,94895.58
2018-03-19T09:27:12.457Z,94888.36
2018-03-19T09:29:40.846Z,94898.66
2018-03-19T09:32:09.202Z,94896.23
2018-03-19T09:34:37.554Z,94901.69
2018-03-19T09:37:05.894Z,94903.45
2018-03-19T09:39:34.229Z,94899.28
2018-03-19T09:42:02.562Z,94907.64
2018-03-19T09:44:30.904Z,94910.25
2018-03-19T09:46:59.296Z,94904.92
2018-03-19T09:49:27.637Z,94906.16
2018-03-19T09:51:56.009Z,94907.09
2018-03-19T09:54:24.331Z,94910.37
2018-03-19T09:56:52.675Z,94912.72
2018-03-19T09:59:21.011Z,94907.47
2018-03-19T10:01:49.365Z,94913.59
2018-03-19T10:04:17.693Z,94919.33
2018-03-19T10:06:46.029Z,94923.25
2018-03-19T10:09:14.390Z,94916.03
2018-03-19T10:11:42.730Z,94924.19
2018-03-19T10:14:11.122Z,94918.64
2018-03-19T10:16:39.460Z,94918.98
2018-03-19T10:19:07.798Z,94919.42
2018-03-19T10:21:36.146Z,94916.34
2018-03-19T10:24:04.485Z,94918.67
2018-03-19T10:26:32.838Z,94920.20
2018-03-19T10:29:01.236Z,94919.45
2018-03-19T10:31:29.592Z,94920.00
2018-03-19T10:33:57.987Z,94921.44
2018-03-19T10:36:26.345Z,94920.83
2018-03-19T10:38:54.675Z,94920.95
2018-03-19T10:41:23.007Z,94921.45
2018-03-19T10:43:51.382Z,94920.00
2018-03-19T10:46:19.728Z,94924.48
2018-03-19T10:48:48.058Z,94926.37
2018-03-19T10:51:16.444Z,94926.59
2018-03-19T10:53:44.773Z,94934.03
2018-03-19T10:56:13.188Z,94932.22
2018-03-19T10:58:41.524Z,94928.05
2018-03-19T11:01:12.868Z,94927.95
2018-03-19T11:03:42.050Z,94928.09
2018-03-19T11:06:15.964Z,94925.72
2018-03-19T11:08:47.115Z,94918.69
2018-03-19T11:11:15.457Z,94924.79
2018-03-19T11:13:43.909Z,94927.06
2018-03-19T11:16:12.235Z,94921.03
2018-03-19T11:18:40.590Z,94921.23
2018-03-19T11:21:08.914Z,94920.80
2018-03-19T11:23:37.310Z,94919.37
2018-03-19T11:26:05.808Z,94919.95
2018-03-19T11:28:34.139Z,94911.23
2018-03-19T11:31:02.469Z,94911.50
2018-03-19T11:33:30.862Z,94916.56
2018-03-19T11:35:59.193Z,94913.03
2018-03-19T11:38:27.530Z,94913.27
2018-03-19T11:40:55.849Z,94913.47
2018-03-19T11:43:24.225Z,94912.80
2018-03-19T11:45:52.567Z,94906.39
2018-03-19T11:48:20.896Z,94910.00
2018-03-19T11:50:49.278Z,94907.16
2018-03-19T11:53:17.656Z,94905.94
2018-03-19T11:55:46.003Z,94912.67
2018-03-19T11:58:14.339Z,94910.91
2018-03-19T12:00:42.696Z,94916.75
2018-03-19T12:03:11.060Z,94911.91
2018-03-19T12:05:39.407Z,94913.76
2018-03-19T12:08:07.738Z,94917.50
2018-03-19T12:10:36.166Z,94915.48
2018-03-19T12:13:04.504Z,94910.91
2018-03-19T12:15:32.856Z,94911.52
2018-03-19T12:18:01.184Z,94909.58
2018-03-19T12:20:29.613Z,94895.67
2018-03-19T12:22:57.935Z,94895.29
2018-03-19T12:25:26.279Z,94901.85
2018-03-19T12:27:54.611Z,94904.47
2018-03-19T12:30:22.946Z,94892.58
2018-03-19T12:32:51.294Z,94901.94
2018-03-19T12:35:19.640Z,94896.48
2018-03-19T12:37:47.971Z,94900.02
2018-03-19T12:40:16.299Z,94896.01
2018-03-19T12:42:44.652Z,94898.62
2018-03-19T12:45:13.075Z,94900.31
2018-03-19T12:47:41.488Z,94903.09
2018-03-19T12:50:09.824Z,94906.85
2018-03-19T12:52:38.241Z,94912.37
2018-03-19T12:55:06.573Z,94908.66
2018-03-19T12:57:34.910Z,94909.23
2018-03-19T13:00:03.256Z,94904.47
2018-03-19T13:02:31.571Z,94899.25
2018-03-19T13:04:59.911Z,94903.82
2018-03-19T13:07:28.291Z,94904.61
2018-03-19T13:09:56.637Z,94904.03
2018-03-19T13:12:24.975Z,94910.38
2018-03-19T13:14:53.420Z,94901.88
2018-03-19T13:17:21.754Z,94903.22
2018-03-19T13:19:50.170Z,94907.14
2018-03-19T13:22:18.554Z,94902.63
2018-03-19T13:24:46.930Z,94899.08
2018-03-19T13:27:15.269Z,94898.56
2018-03-19T13:29:43.676Z,94905.84
2018-03-19T13:32:12.020Z,94909.02
2018-03-19T13:34:40.342Z,94902.25
2018-03-19T13:37:08.727Z,94901.91
2018-03-19T13:39:37.051Z,94907.55
2018-03-19T13:42:05.413Z,94911.60
2018-03-19T13:44:33.769Z,94906.78
2018-03-19T13:47:02.135Z,94916.30
2018-03-19T13:49:30.462Z,94909.95
2018-03-19T13:51:58.887Z,94918.40
2018-03-19T13:54:27.207Z,94915.66
2018-03-19T13:56:55.578Z,94911.17
2018-03-19T13:59:23.894Z,94911.52
2018-03-19T14:01:52.238Z,94916.91
2018-03-19T14:04:20.617Z,94913.81
2018-03-19T14:06:48.954Z,94918.34
2018-03-19T14:09:17.282Z,94913.35
2018-03-19T14:11:45.634Z,94921.41
2018-03-19T14:14:13.985Z,94907.16
2018-03-19T14:16:42.308Z,94909.12
2018-03-19T14:19:10.739Z,94912.84
2018-03-19T14:21:39.075Z,94911.84
2018-03-19T14:24:07.419Z,94917.03
2018-03-19T14:26:35.791Z,94917.34
2018-03-19T14:29:04.151Z,94923.83
2018-03-19T14:31:32.487Z,94925.53
2018-03-19T14:34:00.830Z,94927.16
2018-03-19T14:36:29.166Z,94918.01
2018-03-19T14:38:57.571Z,94921.12
2018-03-19T14:41:25.924Z,94927.00
2018-03-19T14:43:54.360Z,94923.31
2018-03-19T14:46:22.711Z,94926.70
2018-03-19T14:48:51.081Z,94928.27
2018-03-19T14:51:19.411Z,94923.01
2018-03-19T14:53:47.855Z,94925.02
2018-03-19T14:56:16.183Z,94930.46
2018-03-19T14:58:44.512Z,94933.64
2018-03-19T15:01:12.868Z,94931.17
2018-03-19T15:03:41.195Z,94931.33
2018-03-19T15:06:09.627Z,94932.84
2018-03-19T15:08:37.957Z,94937.28
2018-03-19T15:11:06.387Z,94932.52
2018-03-19T15:13:34.714Z,94931.98
2018-03-19T15:16:03.138Z,94929.81
2018-03-19T15:18:31.520Z,94932.86
2018-03-19T15:20:59.903Z,94934.17
2018-03-19T15:23:28.244Z,94934.59
2018-03-19T15:25:56.596Z,94932.74
2018-03-19T15:28:24.933Z,94938.17
2018-03-19T15:30:53.269Z,94933.95
2018-03-19T15:33:21.608Z,94933.78
2018-03-19T15:35:49.958Z,94933.41
2018-03-19T15:38:18.286Z,94937.03
2018-03-19T15:40:46.618Z,94933.98
2018-03-19T15:43:14.975Z,94944.60
2018-03-19T15:45:43.312Z,94933.16
2018-03-19T15:48:11.635Z,94939.11
2018-03-19T15:50:39.996Z,94945.45
2018-03-19T15:53:08.395Z,94934.72
2018-03-19T15:55:36.742Z,94942.48
2018-03-19T15:58:05.076Z,94946.47
2018-03-19T16:00:33.426Z,94946.75
2018-03-19T16:03:01.762Z,94949.23
2018-03-19T16:05:30.137Z,94949.89
2018-03-19T16:07:58.462Z,94950.70
2018-03-19T16:10:26.842Z,94952.70
2018-03-19T16:12:55.182Z,94957.05
2018-03-19T16:15:23.516Z,94955.23
2018-03-19T16:17:51.862Z,94958.45
2018-03-19T16:20:20.207Z,94958.59
2018-03-19T16:22:48.559Z,94963.08
2018-03-19T16:25:16.887Z,94967.85
2018-03-19T16:27:45.327Z,94973.31
2018-03-19T16:30:13.647Z,94979.41
2018-03-19T16:32:41.998Z,94985.82
2018-03-19T16:35:10.328Z,94983.28
2018-03-19T16:37:38.706Z,94983.15
2018-03-19T16:40:07.040Z,94983.67
2018-03-19T16:42:35.452Z,94984.23
2018-03-19T16:45:03.789Z,94980.12
2018-03-19T16:47:32.132Z,94985.30
2018-03-19T16:50:00.468Z,94986.20
2018-03-19T16:52:28.873Z,94983.84
2018-03-19T16:54:57.196Z,94993.00
2018-03-19T16:57:25.601Z,94989.16
2018-03-19T16:59:54.016Z,94989.84
2018-03-19T17:02:22.346Z,94991.02
2018-03-19T17:04:50.724Z,94994.73
2018-03-19T17:07:19.154Z,94993.13
2018-03-19T17:09:47.483Z,94995.27
2018-03-19T17:12:15.820Z,94998.70
2018-03-19T17:14:44.186Z,95004.68
2018-03-19T17:17:12.555Z,95008.80
2018-03-19T17:19:40.941Z,95007.61
2018-03-19T17:22:09.329Z,95012.64
2018-03-19T17:24:37.684Z,95010.91
2018-03-19T17:27:06.105Z,95016.12
2018-03-19T17:29:34.448Z,95017.31
2018-03-19T17:32:02.790Z,95021.42
2018-03-19T17:34:31.111Z,95020.09
2018-03-19T17:36:59.477Z,95025.39
2018-03-19T17:39:27.811Z,95024.05
2018-03-19T17:41:56.139Z,95029.22
2018-03-19T17:44:24.509Z,95039.31
2018-03-19T17:46:52.850Z,95043.58
2018-03-19T17:49:21.442Z,95044.22
2018-03-19T17:51:49.771Z,95042.62
2018-03-19T17:54:18.166Z,95048.23
2018-03-19T17:56:47.323Z,95050.98
2018-03-19T17:59:15.662Z,95052.84
2018-03-19T18:01:44.042Z,95055.37
2018-03-19T18:04:12.382Z,95058.66
2018-03-19T18:06:40.763Z,95058.26
2018-03-19T18:09:09.110Z,95062.77
2018-03-19T18:11:37.602Z,95067.28
2018-03-19T18:14:05.946Z,95074.15
2018-03-19T18:16:34.455Z,95074.02
2018-03-19T18:19:02.819Z,95072.16
2018-03-19T18:21:31.173Z,95074.28
2018-03-19T18:23:59.588Z,95075.60
2018-03-19T18:26:27.971Z,95079.81
2018-03-19T18:28:56.303Z,95084.75
2018-03-19T18:31:24.738Z,95085.29
2018-03-19T18:33:53.132Z,95085.95
2018-03-19T18:36:21.504Z,95089.53
2018-03-19T18:38:49.830Z,95090.06
2018-03-19T18:41:18.215Z,95092.44
2018-03-19T18:43:46.570Z,95094.03
2018-03-19T18:46:14.913Z,95092.80
2018-03-19T18:48:43.274Z,95089.27
2018-03-19T18:51:11.662Z,95096.30
2018-03-19T18:53:40.227Z,95095.11
2018-03-19T18:56:08.613Z,95099.87
2018-03-19T18:58:36.958Z,95099.87
2018-03-19T19:01:05.354Z,95104.78
2018-03-19T19:03:33.683Z,95107.87
2018-03-19T19:06:02.118Z,95107.43
2018-03-19T19:08:30.456Z,95108.23
2018-03-19T19:10:58.955Z,95112.56
2018-03-19T19:13:27.355Z,95108.22
2018-03-19T19:15:55.702Z,95115.52
2018-03-19T19:18:24.031Z,95122.25
2018-03-19T19:20:52.392Z,95123.17
2018-03-19T19:23:20.733Z,95122.37
2018-03-19T19:25:49.108Z,95118.80
2018-03-19T19:28:17.438Z,95123.58
2018-03-19T19:30:45.807Z,95117.42
2018-03-19T19:33:14.141Z,95119.52
2018-03-19T19:35:42.507Z,95118.53
2018-03-19T19:38:10.841Z,95123.08
2018-03-19T19:40:39.179Z,95128.27
2018-03-19T19:43:07.855Z,95122.25
2018-03-19T19:45:36.205Z,95124.90
2018-03-19T19:48:04.553Z,95127.69
2018-03-19T19:50:32.912Z,95119.91
2018-03-19T19:53:01.305Z,95129.33
2018-03-19T19:55:29.634Z,95128.55
2018-03-19T19:57:58.020Z,95126.41
2018-03-19T20:00:26.356Z,95123.17
2018-03-19T20:02:54.734Z,95128.29
2018-03-19T20:05:23.062Z,95132.52
2018-03-19T20:07:51.430Z,95128.06
2018-03-19T20:10:19.787Z,95129.39
2018-03-19T20:12:48.152Z,95127.55
2018-03-19T20:15:16.492Z,95130.32
2018-03-19T20:17:44.857Z,95127.80
2018-03-19T20:20:13.259Z,95127.95
2018-03-19T20:22:41.639Z,95130.99
2018-03-19T20:25:09.978Z,95134.94
2018-03-19T20:27:38.436Z,95131.71
2018-03-19T20:30:06.751Z,95131.05
2018-03-19T20:32:35.157Z,95132.77
2018-03-19T20:35:03.482Z,95137.02
2018-03-19T20:37:31.940Z,95129.71
2018-03-19T20:40:00.265Z,95129.99
2018-03-19T20:42:28.618Z,95132.25
2018-03-19T20:44:56.955Z,95133.25
2018-03-19T20:47:25.332Z,95128.00
2018-03-19T20:49:53.670Z,95128.66
2018-03-19T20:52:22.199Z,95130.42
2018-03-19T20:54:50.531Z,95126.41
2018-03-19T20:57:18.873Z,95123.39
2018-03-19T20:59:47.215Z,95129.59
2018-03-19T21:02:15.599Z,95122.20
2018-03-19T21:04:43.953Z,95124.19
2018-03-19T21:07:12.354Z,95135.20
2018-03-19T21:09:40.760Z,95131.09
2018-03-19T21:12:09.078Z,95139.58
2018-03-19T21:14:37.445Z,95129.33
2018-03-19T21:17:05.766Z,95136.53
2018-03-19T21:19:34.110Z,95137.42
2018-03-19T21:22:02.442Z,95133.44
2018-03-19T21:24:30.788Z,95138.91
2018-03-19T21:26:59.121Z,95133.61
2018-03-19T21:29:27.458Z,95131.59
2018-03-19T21:31:55.872Z,95135.69
2018-03-19T21:34:24.235Z,95133.34
2018-03-19T21:36:52.589Z,95135.16
2018-03-19T21:39:20.939Z,95133.97
2018-03-19T21:41:49.335Z,95132.36
2018-03-19T21:44:17.687Z,95130.38
2018-03-19T21:46:46.006Z,95133.83
2018-03-19T21:49:14.360Z,95135.63
2018-03-19T21:51:42.687Z,95133.24
2018-03-19T21:54:11.012Z,95133.56
2018-03-19T21:56:39.359Z,95139.93
2018-03-19T21:59:07.690Z,95139.94
2018-03-19T22:01:36.053Z,95139.39
2018-03-19T22:04:04.388Z,95133.39
2018-03-19T22:06:32.738Z,95131.53
2018-03-19T22:09:01.120Z,95134.62
2018-03-19T22:11:29.583Z,95135.68
2018-03-19T22:13:57.955Z,95129.14
2018-03-19T22:16:26.336Z,95131.47
2018-03-19T22:18:54.731Z,95128.87
2018-03-19T22:21:23.094Z,95126.34
2018-03-19T22:23:51.423Z,95128.03
2018-03-19T22:26:19.895Z,95132.64
2018-03-19T22:28:48.383Z,95125.36
2018-03-19T22:31:16.730Z,95131.33
2018-03-19T22:33:45.058Z,95130.80
2018-03-19T22:36:13.406Z,95139.41
2018-03-19T22:38:41.738Z,95138.61
2018-03-19T22:41:10.104Z,95136.63
2018-03-19T22:43:38.442Z,95138.22
2018-03-19T22:46:06.776Z,95133.56
2018-03-19T22:48:35.143Z,95135.03
2018-03-19T22:51:03.528Z,95138.34
2018-03-19T22:53:31.857Z,95135.42
2018-03-19T22:56:00.187Z,95134.98
2018-03-19T22:58:28.538Z,95137.09
2018-03-19T23:00:56.931Z,95139.88
2018-03-19T23:03:25.307Z,95142.15
2018-03-19T23:05:53.643Z,95142.39
2018-03-19T23:08:22.063Z,95141.47
2018-03-19T23:10:50.446Z,95139.73
2018-03-19T23:13:18.794Z,95143.32
2018-03-19T23:15:47.115Z,95138.80
2018-03-19T23:18:15.452Z,95134.72
2018-03-19T23:20:43.808Z,95139.88
2018-03-19T23:23:12.146Z,95135.95
2018-03-19T23:25:40.472Z,95133.91
2018-03-19T23:28:08.835Z,95129.53
2018-03-19T23:30:37.159Z,95132.27
2018-03-19T23:33:05.508Z,95133.06
2018-03-19T23:35:33.850Z,95130.33
2018-03-19T23:38:02.208Z,95132.33
2018-03-19T23:40:30.536Z,95127.80
2018-03-19T23:42:58.878Z,95133.24
2018-03-19T23:45:27.198Z,95130.33
2018-03-19T23:47:55.538Z,95133.77
2018-03-19T23:50:23.872Z,95135.48
2018-03-19T23:52:52.258Z,95137.23
2018-03-19T23:55:20.671Z,95133.39
2018-03-19T23:57:48.998Z,95132.46
